createdAt,value
2022-08-27T00:08:37.073Z,4.60
2022-08-27T00:18:42.603Z,4.55
2022-08-27T00:28:47.615Z,4.70
2022-08-27T00:38:53.885Z,5.07
2022-08-27T00:49:01.400Z,5.03
2022-08-27T00:59:06.251Z,4.80
2022-08-27T01:09:13.946Z,4.82
2022-08-27T01:19:29.550Z,4.55
2022-08-27T01:29:34.500Z,4.70
2022-08-27T01:39:39.458Z,4.00
2022-08-27T01:49:45.436Z,4.50
2022-08-27T01:59:48.759Z,4.97
2022-08-27T02:09:53.403Z,5.47
2022-08-27T02:19:56.856Z,4.60
2022-08-27T02:30:01.364Z,3.95
2022-08-27T02:40:05.799Z,3.70
2022-08-27T02:50:11.674Z,3.97
2022-08-27T03:00:18.081Z,4.05
2022-08-27T03:10:23.550Z,4.40
2022-08-27T03:20:27.426Z,3.90
2022-08-27T03:30:32.252Z,3.90
2022-08-27T03:40:35.564Z,4.00
2022-08-27T03:50:42.101Z,4.75
2022-08-27T04:00:45.176Z,4.32
2022-08-27T04:10:49.954Z,5.25
2022-08-27T04:20:53.654Z,4.57
2022-08-27T04:30:58.115Z,4.70
2022-08-27T04:41:23.088Z,4.35
2022-08-27T04:51:28.461Z,4.07
2022-08-27T05:01:33.084Z,4.32
2022-08-27T05:11:38.129Z,4.50
2022-08-27T05:21:45.397Z,4.45
2022-08-27T05:31:49.874Z,4.45
2022-08-27T05:41:57.017Z,4.75
2022-08-27T05:52:01.430Z,4.63
2022-08-27T06:02:06.093Z,4.68
2022-08-27T06:12:10.946Z,4.40
2022-08-27T06:22:14.668Z,4.50
2022-08-27T06:32:19.401Z,3.85
2022-08-27T06:42:22.443Z,4.32
2022-08-27T06:52:26.972Z,3.45
2022-08-27T07:02:30.075Z,3.63
2022-08-27T07:12:34.575Z,3.75
2022-08-27T07:22:37.698Z,3.05
2022-08-27T07:32:43.010Z,3.33
2022-08-27T07:43:03.591Z,3.72
2022-08-27T07:53:08.575Z,4.18
2022-08-27T08:03:12.151Z,4.45
2022-08-27T08:13:16.611Z,5.13
2022-08-27T08:23:20.707Z,6.03
2022-08-27T08:33:25.822Z,6.15
2022-08-27T08:43:33.816Z,5.72
2022-08-27T08:53:47.336Z,5.10
2022-08-27T09:03:55.728Z,5.00
2022-08-27T09:14:03.128Z,4.03
2022-08-27T09:24:12.744Z,5.70
2022-08-27T09:34:18.592Z,5.00
2022-08-27T09:44:22.881Z,4.05
2022-08-27T09:54:41.570Z,4.43
2022-08-27T10:04:50.648Z,4.00
2022-08-27T10:15:00.671Z,4.13
2022-08-27T10:25:13.938Z,3.60
2022-08-27T10:35:22.791Z,3.42
2022-08-27T10:45:42.625Z,3.72
2022-08-27T10:55:52.487Z,2.60
2022-08-27T11:05:57.060Z,2.50
2022-08-27T11:16:03.660Z,3.00
2022-08-27T11:26:08.152Z,3.17
2022-08-27T11:36:30.144Z,2.80
2022-08-27T11:46:45.028Z,2.92
2022-08-27T11:56:52.015Z,2.47
2022-08-27T12:07:07.707Z,2.92
2022-08-27T12:17:24.955Z,2.20
2022-08-27T12:27:34.517Z,2.30
2022-08-27T12:37:41.009Z,2.35
2022-08-27T12:47:50.822Z,2.38
2022-08-27T12:58:05.654Z,2.22
2022-08-27T13:08:20.229Z,2.50
2022-08-27T13:18:24.493Z,2.40
2022-08-27T13:28:35.510Z,2.17
2022-08-27T13:38:41.288Z,2.80
2022-08-27T13:48:48.627Z,2.38
2022-08-27T13:58:51.881Z,2.53
2022-08-27T14:08:56.456Z,2.33
2022-08-27T14:19:07.983Z,2.72
2022-08-27T14:29:12.679Z,2.60
2022-08-27T14:39:15.868Z,2.50
2022-08-27T14:49:27.007Z,2.47
2022-08-27T14:59:30.264Z,2.63
2022-08-27T15:09:34.694Z,2.97
2022-08-27T15:19:37.902Z,2.70
2022-08-27T15:29:42.708Z,3.03
2022-08-27T15:39:45.824Z,3.28
2022-08-27T15:49:50.341Z,3.20
2022-08-27T15:59:53.385Z,3.22
2022-08-27T16:09:57.881Z,3.40
2022-08-27T16:20:01.197Z,3.83
2022-08-27T16:30:06.658Z,4.55
2022-08-27T16:40:11.017Z,4.78
2022-08-27T16:50:33.093Z,5.10
2022-08-27T17:00:38.684Z,5.35
2022-08-27T17:10:46.337Z,6.85
2022-08-27T17:20:50.241Z,6.70
2022-08-27T17:30:56.045Z,6.65
2022-08-27T17:40:59.952Z,5.00
2022-08-27T17:51:05.318Z,4.40
2022-08-27T18:01:11.344Z,4.88
2022-08-27T18:11:16.173Z,3.95
2022-08-27T18:21:25.477Z,4.75
2022-08-27T18:31:32.819Z,5.28
2022-08-27T18:41:36.147Z,6.03
2022-08-27T18:51:43.494Z,6.50
2022-08-27T19:01:47.192Z,6.72
2022-08-27T19:11:52.412Z,6.82
2022-08-27T19:21:55.611Z,6.75
2022-08-27T19:32:03.194Z,6.93
2022-08-27T19:42:07.027Z,7.15
2022-08-27T19:52:11.741Z,7.30
2022-08-27T20:02:14.765Z,8.00
2022-08-27T20:12:19.180Z,7.50
2022-08-27T20:22:22.206Z,7.70
2022-08-27T20:32:30.081Z,7.85
2022-08-27T20:42:33.566Z,8.18
2022-08-27T20:52:38.543Z,8.52
2022-08-27T21:02:41.724Z,7.95
2022-08-27T21:12:46.840Z,8.32
2022-08-27T21:22:50.370Z,7.47
2022-08-27T21:32:55.779Z,8.27
2022-08-27T21:42:58.926Z,8.48
2022-08-27T21:53:03.351Z,8.68
2022-08-27T22:03:10.339Z,8.23
2022-08-27T22:13:15.608Z,8.60
2022-08-27T22:23:18.728Z,8.80
2022-08-27T22:33:23.322Z,9.20
2022-08-27T22:43:26.476Z,8.23
2022-08-27T22:53:30.990Z,9.95
2022-08-27T23:03:34.136Z,9.18
2022-08-27T23:13:38.822Z,9.38
2022-08-27T23:23:41.960Z,8.55
2022-08-27T23:33:46.894Z,9.00
2022-08-27T23:43:49.949Z,8.35
2022-08-27T23:53:54.453Z,8.55
